Time;durP1;ratioP1;P1;durP2;ratioP2;P2;SDS_P1;SDS_P2;PMS_P1;PMS_P2;Temp;Humidity;BMP_temperature;BMP_pressure;BME280_temperature;BME280_humidity;BME280_pressure;Samples;Min_cycle;Max_cycle;Signal;HPM_P1;HPM_P2
2022/09/13 00:01:07;;;;;;;11.40;10.70;;;;;;;;;;5041053;28;20037;-62
2022/09/13 00:03:33;;;;;;;11.38;10.68;;;;;;;;;;5042646;28;20040;-62
2022/09/13 00:06:09;;;;;;;10.73;10.02;;;;;;;;;;5039535;28;20355;-63
2022/09/13 00:08:35;;;;;;;9.00;8.40;;;;;;;;;;5039776;28;20065;-62
2022/09/13 00:11:00;;;;;;;11.27;10.45;;;;;;;;;;5040734;28;20631;-62
2022/09/13 00:13:25;;;;;;;12.00;11.20;;;;;;;;;;5038127;28;20032;-62
2022/09/13 00:15:51;;;;;;;13.23;12.43;;;;;;;;;;5037584;28;20112;-62
2022/09/13 00:18:17;;;;;;;13.32;12.05;;;;;;;;;;5041460;28;20068;-62
2022/09/13 00:20:43;;;;;;;11.85;11.10;;;;;;;;;;5041622;28;20036;-62
2022/09/13 00:23:09;;;;;;;11.18;10.45;;;;;;;;;;5040468;28;20037;-62
2022/09/13 00:25:35;;;;;;;12.95;12.05;;;;;;;;;;5042569;28;20022;-62
2022/09/13 00:28:01;;;;;;;8.32;7.82;;;;;;;;;;5037350;28;20403;-62
2022/09/13 00:30:26;;;;;;;8.93;8.32;;;;;;;;;;5039884;28;20128;-64
2022/09/13 00:32:52;;;;;;;8.30;7.70;;;;;;;;;;5040114;28;20578;-62
2022/09/13 00:35:17;;;;;;;9.50;8.90;;;;;;;;;;5041075;28;20032;-62
2022/09/13 00:37:43;;;;;;;9.05;8.45;;;;;;;;;;5042440;28;20120;-62
2022/09/13 00:40:09;;;;;;;7.72;7.22;;;;;;;;;;5035690;28;20035;-62
2022/09/13 00:42:34;;;;;;;7.60;7.10;;;;;;;;;;5042819;28;20446;-62
2022/09/13 00:45:13;;;;;;;8.20;7.70;;;;;;;;;;5039330;28;20040;-62
2022/09/13 00:47:46;;;;;;;7.88;7.28;;;;;;;;;;5037884;28;20024;-62
2022/09/13 00:50:27;;;;;;;9.05;8.45;;;;;;;;;;5038010;28;20159;-62
2022/09/13 00:53:01;;;;;;;;;;;;;;;;;;5038713;28;20067;-62
2022/09/13 00:55:33;;;;;;;8.70;8.13;;;;;;;;;;5037917;28;19921;-62
2022/09/13 00:58:04;;;;;;;9.55;8.95;;;;;;;;;;5038986;28;20059;-62
2022/09/13 01:00:30;;;;;;;11.75;11.05;;;;;;;;;;5036494;28;20354;-62
2022/09/13 01:02:59;;;;;;;14.20;13.32;;;;;;;;;;5038387;28;20044;-63
2022/09/13 01:05:29;;;;;;;9.05;8.45;;;;;;;;;;5038310;28;20050;-62
2022/09/13 01:07:55;;;;;;;11.32;10.63;;;;;;;;;;5038843;28;20036;-62
2022/09/13 01:10:22;;;;;;;11.88;11.18;;;;;;;;;;5041300;28;20178;-62
2022/09/13 01:12:53;;;;;;;9.65;9.05;;;;;;;;;;5039593;28;20041;-62
2022/09/13 01:15:19;;;;;;;14.68;10.15;;;;;;;;;;5039142;28;20205;-62
2022/09/13 01:17:45;;;;;;;9.27;8.68;;;;;;;;;;5070337;28;20665;-62
2022/09/13 01:20:12;;;;;;;9.68;9.07;;;;;;;;;;5038256;28;20103;-62
2022/09/13 01:23:03;;;;;;;9.35;8.75;;;;;;;;;;5037845;28;20025;-62
2022/09/13 01:25:47;;;;;;;10.82;10.13;;;;;;;;;;5039773;28;20033;-62
2022/09/13 01:28:47;;;;;;;8.90;8.30;;;;;;;;;;5038310;28;20044;-62
2022/09/13 01:31:31;;;;;;;11.32;10.52;;;;;;;;;;4947971;29;20118;-63
2022/09/13 01:34:01;;;;;;;9.85;9.25;;;;;;;;;;5030615;28;20231;-63
2022/09/13 01:36:58;;;;;;;14.93;14.00;;;;;;;;;;5035812;28;20388;-62
2022/09/13 01:39:37;;;;;;;12.55;11.75;;;;;;;;;;5009336;28;20044;-63
2022/09/13 01:42:12;;;;;;;11.00;10.30;;;;;;;;;;5039568;28;20068;-62
2022/09/13 01:45:04;;;;;;;11.15;10.45;;;;;;;;;;5038383;28;20047;-62
2022/09/13 01:47:48;;;;;;;13.15;12.35;;;;;;;;;;5039421;28;20017;-63
2022/09/13 01:50:41;;;;;;;13.98;13.18;;;;;;;;;;5038233;28;20044;-62
2022/09/13 01:53:10;;;;;;;12.63;11.82;;;;;;;;;;5039251;28;20033;-62
2022/09/13 01:55:53;;;;;;;13.20;12.40;;;;;;;;;;5039495;28;20417;-62
2022/09/13 01:58:26;;;;;;;12.65;11.85;;;;;;;;;;5034754;28;20242;-62
2022/09/13 02:01:07;;;;;;;11.90;11.20;;;;;;;;;;5037752;28;20550;-62
2022/09/13 02:03:48;;;;;;;12.50;11.70;;;;;;;;;;5039731;28;20611;-62
2022/09/13 02:06:20;;;;;;;10.40;9.80;;;;;;;;;;5035270;28;20025;-62
2022/09/13 02:08:59;;;;;;;10.48;9.77;;;;;;;;;;5035834;28;20072;-62
2022/09/13 02:11:25;;;;;;;11.85;11.05;;;;;;;;;;5035222;28;20087;-62
2022/09/13 02:14:16;;;;;;;10.95;10.15;;;;;;;;;;5033163;28;20383;-62
2022/09/13 02:16:51;;;;;;;12.07;11.07;;;;;;;;;;5037800;28;20303;-62
2022/09/13 02:19:20;;;;;;;11.35;10.65;;;;;;;;;;5036381;28;20075;-63
2022/09/13 02:21:51;;;;;;;11.95;11.25;;;;;;;;;;5034719;28;20033;-63
2022/09/13 02:24:21;;;;;;;12.75;11.95;;;;;;;;;;5036196;28;20041;-63
2022/09/13 02:26:51;;;;;;;11.57;10.88;;;;;;;;;;5037297;28;20624;-62
2022/09/13 02:29:20;;;;;;;13.53;12.63;;;;;;;;;;5034778;28;20037;-62
2022/09/13 02:31:59;;;;;;;12.63;11.82;;;;;;;;;;5040525;28;20045;-62
2022/09/13 02:34:33;;;;;;;12.48;11.68;;;;;;;;;;5034286;28;20471;-62
2022/09/13 02:37:00;;;;;;;12.82;12.02;;;;;;;;;;5039184;28;20071;-63
2022/09/13 02:39:30;;;;;;;12.13;11.32;;;;;;;;;;5034951;28;20113;-63
2022/09/13 02:42:19;;;;;;;13.43;12.52;;;;;;;;;;5036241;28;20043;-62
2022/09/13 02:44:55;;;;;;;12.40;11.48;;;;;;;;;;5039257;28;20033;-63
2022/09/13 02:47:58;;;;;;;13.13;12.32;;;;;;;;;;5035955;28;20048;-63
2022/09/13 02:50:44;;;;;;;13.90;13.07;;;;;;;;;;5038513;28;20029;-63
2022/09/13 02:53:35;;;;;;;12.75;11.77;;;;;;;;;;5036863;28;20517;-63
2022/09/13 02:56:32;;;;;;;12.68;11.88;;;;;;;;;;5037578;28;20036;-62
2022/09/13 02:59:08;;;;;;;10.70;10.00;;;;;;;;;;5040236;28;20045;-62
2022/09/13 03:01:36;;;;;;;10.45;9.77;;;;;;;;;;5032904;28;20125;-63
2022/09/13 03:04:02;;;;;;;9.57;8.98;;;;;;;;;;5037342;28;20036;-63
2022/09/13 03:06:28;;;;;;;12.85;11.98;;;;;;;;;;5036410;28;20109;-63
2022/09/13 03:08:58;;;;;;;13.60;12.80;;;;;;;;;;5037344;28;20026;-63
2022/09/13 03:11:31;;;;;;;13.30;12.50;;;;;;;;;;5036675;28;20451;-63
2022/09/13 03:14:18;;;;;;;15.20;14.30;;;;;;;;;;5036850;28;20545;-63
2022/09/13 03:17:13;;;;;;;12.95;12.13;;;;;;;;;;5035149;28;20120;-63
2022/09/13 03:19:49;;;;;;;13.48;12.68;;;;;;;;;;5037999;28;20033;-62
2022/09/13 03:22:44;;;;;;;13.27;12.48;;;;;;;;;;5035331;28;20033;-63
2022/09/13 03:25:33;;;;;;;13.68;12.77;;;;;;;;;;5022052;28;20033;-63
2022/09/13 03:28:11;;;;;;;11.57;10.88;;;;;;;;;;5042137;28;20048;-63
2022/09/13 03:30:42;;;;;;;10.75;10.05;;;;;;;;;;5038761;28;20488;-63
2022/09/13 03:33:22;;;;;;;12.27;11.52;;;;;;;;;;5042335;28;20344;-63
2022/09/13 03:36:01;;;;;;;12.40;11.68;;;;;;;;;;5038555;28;20033;-63
2022/09/13 03:38:57;;;;;;;12.10;11.38;;;;;;;;;;5038178;28;20403;-63
2022/09/13 03:41:30;;;;;;;12.57;11.77;;;;;;;;;;5038246;28;20111;-63
2022/09/13 03:44:00;;;;;;;11.38;10.68;;;;;;;;;;5039482;28;20021;-63
2022/09/13 03:46:45;;;;;;;13.15;12.35;;;;;;;;;;5039709;28;20025;-63
2022/09/13 03:49:16;;;;;;;12.65;11.85;;;;;;;;;;5040006;28;20604;-63
2022/09/13 03:51:47;;;;;;;11.27;10.57;;;;;;;;;;5036911;28;20041;-63
2022/09/13 03:54:31;;;;;;;11.82;11.05;;;;;;;;;;5038219;28;20029;-63
2022/09/13 03:57:10;;;;;;;13.65;10.80;;;;;;;;;;5039038;28;20025;-62
2022/09/13 03:59:38;;;;;;;10.90;10.20;;;;;;;;;;5039369;28;20429;-62
2022/09/13 04:02:06;;;;;;;12.77;11.85;;;;;;;;;;5038055;28;20040;-63
2022/09/13 04:04:32;;;;;;;12.50;11.70;;;;;;;;;;5039840;28;20546;-63
2022/09/13 04:07:00;;;;;;;13.40;12.60;;;;;;;;;;5041095;28;20021;-63
2022/09/13 04:09:25;;;;;;;13.32;12.52;;;;;;;;;;5038698;28;20116;-63
2022/09/13 04:11:50;;;;;;;14.73;13.85;;;;;;;;;;5039755;28;20117;-62
2022/09/13 04:14:16;;;;;;;13.30;12.50;;;;;;;;;;5073284;28;20067;-62
2022/09/13 04:16:42;;;;;;;13.50;12.55;;;;;;;;;;5039528;28;20119;-62
2022/09/13 04:19:07;;;;;;;12.15;11.35;;;;;;;;;;5039672;28;20268;-62
2022/09/13 04:21:32;;;;;;;12.82;12.02;;;;;;;;;;5039849;28;20029;-62
2022/09/13 04:23:58;;;;;;;14.13;13.32;;;;;;;;;;5039394;28;20072;-62
2022/09/13 04:26:23;;;;;;;14.15;13.35;;;;;;;;;;5037682;28;20064;-62
2022/09/13 04:28:48;;;;;;;14.07;13.07;;;;;;;;;;5037880;28;20413;-62
2022/09/13 04:31:14;;;;;;;15.50;14.50;;;;;;;;;;5038642;28;20438;-62
2022/09/13 04:33:40;;;;;;;16.85;15.85;;;;;;;;;;5036918;28;20052;-62
2022/09/13 04:36:05;;;;;;;15.77;14.88;;;;;;;;;;5038410;28;20127;-62
2022/09/13 04:38:31;;;;;;;12.95;12.15;;;;;;;;;;5037794;28;20112;-63
2022/09/13 04:40:56;;;;;;;12.02;11.23;;;;;;;;;;5035793;28;20476;-63
2022/09/13 04:43:22;;;;;;;12.98;12.18;;;;;;;;;;5038361;28;20017;-63
2022/09/13 04:45:48;;;;;;;12.20;11.40;;;;;;;;;;5037285;28;20178;-63
2022/09/13 04:48:14;;;;;;;24.67;23.38;;;;;;;;;;5038081;28;20059;-62
2022/09/13 04:50:39;;;;;;;19.13;18.08;;;;;;;;;;5035462;28;20033;-62
2022/09/13 04:53:05;;;;;;;17.23;16.23;;;;;;;;;;5041012;28;20041;-62
2022/09/13 04:55:30;;;;;;;18.40;17.40;;;;;;;;;;5038183;28;20037;-62
2022/09/13 04:57:56;;;;;;;19.20;18.10;;;;;;;;;;5036437;28;20056;-62
2022/09/13 05:00:22;;;;;;;18.00;16.80;;;;;;;;;;5040979;28;20031;-62
2022/09/13 05:02:47;;;;;;;15.85;14.95;;;;;;;;;;5037527;28;20025;-62
2022/09/13 05:05:13;;;;;;;16.75;15.55;;;;;;;;;;5037312;28;20140;-62
2022/09/13 05:07:38;;;;;;;17.75;16.75;;;;;;;;;;5037971;28;20032;-62
2022/09/13 05:10:04;;;;;;;16.25;15.25;;;;;;;;;;5040063;28;20025;-62
2022/09/13 05:12:30;;;;;;;15.40;14.50;;;;;;;;;;5037616;28;20060;-62
2022/09/13 05:14:55;;;;;;;14.38;13.13;;;;;;;;;;5038146;28;20159;-61
2022/09/13 05:17:20;;;;;;;12.98;11.98;;;;;;;;;;5038797;28;20116;-61
2022/09/13 05:19:46;;;;;;;12.90;12.05;;;;;;;;;;5036974;28;20032;-62
2022/09/13 05:22:12;;;;;;;11.02;10.32;;;;;;;;;;5036681;28;20557;-62
2022/09/13 05:24:37;;;;;;;9.70;8.90;;;;;;;;;;5037113;28;20615;-61
2022/09/13 05:27:03;;;;;;;10.70;10.00;;;;;;;;;;5036970;28;20695;-61
2022/09/13 05:29:28;;;;;;;13.02;12.23;;;;;;;;;;5037371;28;20032;-61
2022/09/13 05:31:53;;;;;;;10.95;10.25;;;;;;;;;;5037584;28;20033;-60
2022/09/13 05:34:19;;;;;;;11.32;10.63;;;;;;;;;;5037918;28;20082;-61
2022/09/13 05:36:45;;;;;;;16.38;15.40;;;;;;;;;;5038002;28;20025;-61
2022/09/13 05:39:14;;;;;;;12.13;11.43;;;;;;;;;;5040246;28;20029;-62
2022/09/13 05:41:40;;;;;;;12.88;11.98;;;;;;;;;;5036009;28;20025;-62
2022/09/13 05:44:05;;;;;;;13.52;12.70;;;;;;;;;;5049592;28;20060;-62
2022/09/13 05:46:31;;;;;;;14.48;13.57;;;;;;;;;;5036074;28;20059;-62
2022/09/13 05:48:58;;;;;;;16.08;15.15;;;;;;;;;;5033363;28;20048;-62
2022/09/13 05:51:24;;;;;;;13.88;12.98;;;;;;;;;;5037822;28;20043;-62
2022/09/13 05:53:51;;;;;;;13.02;12.23;;;;;;;;;;5033903;28;20360;-62
2022/09/13 05:56:19;;;;;;;15.10;14.02;;;;;;;;;;5037569;28;20040;-62
2022/09/13 05:58:47;;;;;;;14.32;13.43;;;;;;;;;;5067744;28;20089;-62
2022/09/13 06:01:14;;;;;;;13.77;12.98;;;;;;;;;;5037394;28;20073;-62
2022/09/13 06:03:39;;;;;;;15.90;15.00;;;;;;;;;;5038752;28;20025;-62
2022/09/13 06:06:05;;;;;;;16.20;15.20;;;;;;;;;;5036375;28;20033;-62
2022/09/13 06:08:32;;;;;;;13.05;12.25;;;;;;;;;;5035752;28;20543;-62
2022/09/13 06:11:06;;;;;;;18.27;17.23;;;;;;;;;;5034952;28;20044;-62
2022/09/13 06:13:32;;;;;;;30.67;29.05;;;;;;;;;;5037772;28;20128;-62
2022/09/13 06:15:59;;;;;;;22.48;20.98;;;;;;;;;;5034091;28;20120;-62
2022/09/13 06:18:25;;;;;;;21.15;19.95;;;;;;;;;;5035043;28;20032;-62
2022/09/13 06:20:51;;;;;;;13.38;12.40;;;;;;;;;;5036844;28;20086;-62
2022/09/13 06:23:16;;;;;;;13.77;12.88;;;;;;;;;;5039118;28;20314;-62
2022/09/13 06:25:42;;;;;;;16.17;15.27;;;;;;;;;;5034812;28;20025;-62
2022/09/13 06:28:08;;;;;;;20.10;18.77;;;;;;;;;;5036690;28;20033;-62
2022/09/13 06:30:34;;;;;;;14.35;13.55;;;;;;;;;;5037186;28;20056;-62
2022/09/13 06:32:59;;;;;;;13.73;12.93;;;;;;;;;;5035408;28;20033;-62
2022/09/13 06:35:25;;;;;;;9.85;9.25;;;;;;;;;;5036833;28;20029;-62
2022/09/13 06:37:53;;;;;;;16.05;15.05;;;;;;;;;;5036636;28;20021;-62
2022/09/13 06:40:19;;;;;;;12.52;11.63;;;;;;;;;;5037412;28;20457;-62
2022/09/13 06:42:44;;;;;;;11.27;10.50;;;;;;;;;;5036549;28;20043;-62
2022/09/13 06:45:10;;;;;;;13.45;12.63;;;;;;;;;;5037636;28;20029;-62
2022/09/13 06:47:35;;;;;;;12.50;11.60;;;;;;;;;;5036545;28;20029;-63
2022/09/13 06:50:01;;;;;;;11.13;10.32;;;;;;;;;;5037793;28;20037;-63
2022/09/13 06:52:26;;;;;;;15.50;14.40;;;;;;;;;;5038442;28;20048;-62
2022/09/13 06:54:52;;;;;;;16.33;15.30;;;;;;;;;;5033220;28;20036;-62
2022/09/13 06:57:18;;;;;;;13.55;12.75;;;;;;;;;;5029497;28;20247;-62
2022/09/13 06:59:43;;;;;;;10.30;9.55;;;;;;;;;;5038123;28;20029;-62
2022/09/13 07:02:09;;;;;;;11.95;11.15;;;;;;;;;;5042767;28;20039;-62
2022/09/13 07:04:34;;;;;;;11.80;11.00;;;;;;;;;;5033707;28;20034;-62
2022/09/13 07:07:00;;;;;;;10.75;9.95;;;;;;;;;;5033101;28;20105;-62
2022/09/13 07:09:25;;;;;;;7.35;6.75;;;;;;;;;;5036798;28;20029;-62
2022/09/13 07:11:53;;;;;;;8.55;7.70;;;;;;;;;;5063460;28;20936;-62
2022/09/13 07:14:21;;;;;;;9.80;9.00;;;;;;;;;;5036503;28;20401;-63
2022/09/13 07:16:48;;;;;;;9.18;8.55;;;;;;;;;;5033870;28;20473;-63
2022/09/13 07:19:16;;;;;;;11.13;10.40;;;;;;;;;;5035374;28;20072;-62
2022/09/13 07:21:42;;;;;;;11.98;11.25;;;;;;;;;;5033902;28;20521;-62
2022/09/13 07:24:07;;;;;;;11.93;11.18;;;;;;;;;;5034089;28;20037;-62
2022/09/13 07:26:33;;;;;;;10.77;10.07;;;;;;;;;;5040428;28;20064;-62
2022/09/13 07:29:01;;;;;;;9.63;8.93;;;;;;;;;;5035055;28;20021;-63
2022/09/13 07:31:29;;;;;;;8.23;7.63;;;;;;;;;;5033898;28;20391;-63
2022/09/13 07:33:56;;;;;;;9.55;8.85;;;;;;;;;;5035599;28;20065;-63
2022/09/13 07:36:22;;;;;;;10.10;7.75;;;;;;;;;;5037043;28;20071;-63
2022/09/13 07:38:48;;;;;;;7.65;7.15;;;;;;;;;;5035251;28;20025;-63
2022/09/13 07:41:16;;;;;;;9.30;8.60;;;;;;;;;;5031503;28;20060;-63
2022/09/13 07:43:42;;;;;;;10.88;10.13;;;;;;;;;;5036874;28;20108;-63
2022/09/13 07:46:13;;;;;;;11.15;10.45;;;;;;;;;;5026353;28;20120;-63
2022/09/13 07:48:41;;;;;;;12.77;11.77;;;;;;;;;;5035620;28;20025;-63
2022/09/13 07:51:09;;;;;;;11.50;10.70;;;;;;;;;;5040167;28;20037;-63
2022/09/13 07:53:36;;;;;;;10.30;9.60;;;;;;;;;;5039267;28;20044;-63
2022/09/13 07:56:06;;;;;;;10.50;9.75;;;;;;;;;;5033917;28;20069;-64
2022/09/13 07:58:33;;;;;;;9.25;8.65;;;;;;;;;;5034980;28;20075;-64
2022/09/13 08:01:26;;;;;;;9.82;9.02;;;;;;;;;;5034367;28;20033;-64
2022/09/13 08:03:56;;;;;;;11.80;11.00;;;;;;;;;;5036970;28;20033;-64
2022/09/13 08:06:23;;;;;;;9.15;8.45;;;;;;;;;;5036208;28;20036;-64
2022/09/13 08:08:48;;;;;;;9.32;8.63;;;;;;;;;;5036531;28;20036;-64
2022/09/13 08:11:18;;;;;;;9.32;8.73;;;;;;;;;;5037265;28;20029;-64
2022/09/13 08:13:44;;;;;;;8.93;8.27;;;;;;;;;;5036386;28;20029;-64
2022/09/13 08:16:10;;;;;;;8.57;7.93;;;;;;;;;;5039721;28;20075;-64
2022/09/13 08:18:35;;;;;;;7.55;7.03;;;;;;;;;;5039279;28;20048;-64
2022/09/13 08:21:01;;;;;;;7.85;7.25;;;;;;;;;;5038893;28;20029;-64
2022/09/13 08:23:26;;;;;;;8.95;8.35;;;;;;;;;;5036555;28;20091;-64
2022/09/13 08:25:52;;;;;;;10.48;9.77;;;;;;;;;;5038346;28;20087;-64
2022/09/13 08:28:23;;;;;;;8.23;7.63;;;;;;;;;;5041111;28;20086;-64
2022/09/13 08:30:49;;;;;;;12.45;11.57;;;;;;;;;;5041754;28;20347;-64
2022/09/13 08:33:15;;;;;;;9.82;9.23;;;;;;;;;;5041140;28;20099;-64
2022/09/13 08:35:40;;;;;;;10.45;9.68;;;;;;;;;;5038830;28;20029;-64
2022/09/13 08:38:06;;;;;;;12.75;11.75;;;;;;;;;;5039650;28;20472;-63
2022/09/13 08:40:41;;;;;;;10.45;9.75;;;;;;;;;;5037865;28;20021;-63
2022/09/13 08:43:15;;;;;;;10.02;9.13;;;;;;;;;;5036532;28;20037;-63
2022/09/13 08:45:41;;;;;;;9.98;9.18;;;;;;;;;;5038802;28;20517;-64
2022/09/13 08:48:32;;;;;;;8.48;7.88;;;;;;;;;;5035419;28;20049;-64
2022/09/13 08:51:03;;;;;;;7.72;7.22;;;;;;;;;;5035467;28;20506;-64
2022/09/13 08:53:29;;;;;;;;;;;;;;;;;;5038351;28;20033;-63
2022/09/13 08:56:21;;;;;;;7.80;7.25;;;;;;;;;;5041771;28;19991;-63
2022/09/13 08:58:59;;;;;;;8.98;8.27;;;;;;;;;;5038600;28;20075;-63
2022/09/13 09:01:50;;;;;;;8.80;8.02;;;;;;;;;;5037404;28;20692;-64
2022/09/13 09:04:24;;;;;;;8.38;7.78;;;;;;;;;;5040598;28;20029;-63
2022/09/13 09:07:12;;;;;;;7.40;6.90;;;;;;;;;;5069287;28;20048;-64
2022/09/13 09:09:52;;;;;;;7.63;7.13;;;;;;;;;;5039690;28;20041;-64
2022/09/13 09:12:35;;;;;;;8.93;8.23;;;;;;;;;;5037170;28;20090;-64
2022/09/13 09:15:10;;;;;;;10.30;9.55;;;;;;;;;;5038904;28;20370;-64
2022/09/13 09:18:06;;;;;;;10.23;9.43;;;;;;;;;;5034548;28;20112;-63
2022/09/13 09:20:41;;;;;;;9.77;9.07;;;;;;;;;;5039399;28;20038;-65
2022/09/13 09:23:20;;;;;;;12.07;10.82;;;;;;;;;;5039644;28;20490;-64
2022/09/13 09:25:46;;;;;;;10.57;9.88;;;;;;;;;;5040041;28;20129;-64
2022/09/13 09:28:17;;;;;;;7.57;7.07;;;;;;;;;;5038317;28;20033;-65
2022/09/13 09:30:54;;;;;;;9.32;8.63;;;;;;;;;;5034672;28;20021;-65
2022/09/13 09:33:39;;;;;;;7.95;7.35;;;;;;;;;;5035561;28;20033;-64
2022/09/13 09:36:15;;;;;;;7.88;7.38;;;;;;;;;;5038452;28;20052;-64
2022/09/13 09:38:42;;;;;;;7.95;7.45;;;;;;;;;;5039903;28;20079;-64
2022/09/13 09:41:29;;;;;;;8.18;7.57;;;;;;;;;;5036401;28;20622;-63
2022/09/13 09:44:13;;;;;;;8.55;7.95;;;;;;;;;;5033151;28;20022;-64
2022/09/13 09:46:41;;;;;;;8.63;8.02;;;;;;;;;;5034559;28;20741;-64
2022/09/13 09:52:05;;;;;;;8.60;8.00;;;;;;;;;;5039427;28;20033;-64
2022/09/13 09:54:33;;;;;;;9.90;9.20;;;;;;;;;;5035261;28;20037;-64
2022/09/13 09:57:00;;;;;;;8.65;8.05;;;;;;;;;;5039552;28;20033;-64
2022/09/13 09:59:31;;;;;;;9.88;9.18;;;;;;;;;;5036379;28;20061;-64
2022/09/13 10:02:10;;;;;;;8.82;8.23;;;;;;;;;;5033029;28;20083;-65
2022/09/13 10:04:36;;;;;;;9.13;8.43;;;;;;;;;;5037718;28;20029;-64
2022/09/13 10:07:19;;;;;;;8.43;7.82;;;;;;;;;;5035266;28;20040;-65
2022/09/13 10:10:25;;;;;;;7.63;7.03;;;;;;;;;;5038336;28;20041;-65
2022/09/13 10:12:54;;;;;;;9.20;8.35;;;;;;;;;;5023719;28;20048;-65
2022/09/13 10:15:31;;;;;;;7.35;6.85;;;;;;;;;;5039206;28;20033;-64
2022/09/13 10:18:03;;;;;;;9.18;8.43;;;;;;;;;;5033221;28;20038;-64
2022/09/13 10:20:30;;;;;;;9.18;8.57;;;;;;;;;;5033351;28;20055;-65
2022/09/13 10:23:18;;;;;;;8.25;7.65;;;;;;;;;;5033227;28;20036;-65
2022/09/13 10:25:56;;;;;;;7.78;7.20;;;;;;;;;;5033750;28;20099;-65
2022/09/13 10:28:23;;;;;;;8.50;7.88;;;;;;;;;;5037021;28;20052;-64
2022/09/13 10:30:55;;;;;;;10.10;9.23;;;;;;;;;;5035007;28;20033;-64
2022/09/13 10:33:31;;;;;;;8.65;8.05;;;;;;;;;;5034340;28;20615;-67
2022/09/13 10:36:00;;;;;;;8.15;7.55;;;;;;;;;;5032861;28;20025;-65
2022/09/13 10:38:32;;;;;;;9.40;8.80;;;;;;;;;;5036822;28;20754;-64
2022/09/13 10:41:00;;;;;;;9.32;8.43;;;;;;;;;;5033764;28;20041;-64
2022/09/13 10:43:31;;;;;;;8.38;7.78;;;;;;;;;;5032691;28;21648;-64
2022/09/13 10:46:00;;;;;;;9.35;8.55;;;;;;;;;;5033001;28;20685;-65
2022/09/13 10:48:28;;;;;;;9.48;8.77;;;;;;;;;;5033893;28;20033;-65
2022/09/13 10:51:17;;;;;;;10.00;9.30;;;;;;;;;;5032032;28;20037;-66
2022/09/13 10:53:42;;;;;;;8.63;8.02;;;;;;;;;;5039318;28;20043;-66
2022/09/13 10:56:20;;;;;;;9.15;8.55;;;;;;;;;;5039801;28;20053;-66
2022/09/13 10:58:46;;;;;;;12.02;11.23;;;;;;;;;;5039478;28;20123;-66
2022/09/13 11:01:23;;;;;;;11.52;10.63;;;;;;;;;;5036610;28;20116;-65
2022/09/13 11:04:08;;;;;;;11.82;11.02;;;;;;;;;;5035870;28;20033;-64
2022/09/13 11:07:03;;;;;;;10.43;9.73;;;;;;;;;;5036697;28;20025;-65
2022/09/13 11:09:28;;;;;;;11.90;11.10;;;;;;;;;;5005782;28;20040;-64
2022/09/13 11:12:12;;;;;;;8.15;7.55;;;;;;;;;;5035084;28;20584;-65
2022/09/13 11:14:49;;;;;;;10.00;9.40;;;;;;;;;;5067676;28;20539;-65
2022/09/13 11:17:24;;;;;;;12.60;11.80;;;;;;;;;;5035392;28;20079;-65
2022/09/13 11:20:04;;;;;;;10.13;9.43;;;;;;;;;;5037192;28;20029;-64
2022/09/13 11:22:36;;;;;;;;;;;;;;;;;;5034168;28;20477;-65
2022/09/13 11:25:23;;;;;;;8.05;7.40;;;;;;;;;;5068053;28;20001;-66
2022/09/13 11:28:35;;;;;;;7.60;7.05;;;;;;;;;;5035668;28;20411;-66
2022/09/13 11:31:38;;;;;;;13.57;8.25;;;;;;;;;;5009399;28;20065;-66
2022/09/13 11:34:42;;;;;;;8.60;8.00;;;;;;;;;;5007649;28;20121;-66
2022/09/13 11:37:25;;;;;;;9.10;8.43;;;;;;;;;;5033197;28;20044;-66
2022/09/13 11:40:02;;;;;;;9.80;9.15;;;;;;;;;;5034679;28;20040;-65
2022/09/13 11:42:52;;;;;;;8.63;8.02;;;;;;;;;;5036791;28;20043;-65
2022/09/13 11:45:21;;;;;;;9.07;8.48;;;;;;;;;;5037330;28;20163;-65
2022/09/13 11:48:09;;;;;;;11.32;10.27;;;;;;;;;;5039368;28;20041;-65
2022/09/13 11:50:44;;;;;;;9.38;8.75;;;;;;;;;;5037704;28;20037;-65
2022/09/13 11:53:34;;;;;;;11.55;10.85;;;;;;;;;;5039540;28;20537;-65
2022/09/13 11:56:07;;;;;;;12.20;10.75;;;;;;;;;;5039982;28;20441;-66
2022/09/13 11:58:38;;;;;;;11.18;10.48;;;;;;;;;;5040575;28;20557;-66
2022/09/13 12:01:10;;;;;;;13.52;12.52;;;;;;;;;;5038214;28;20412;-64
2022/09/13 12:03:35;;;;;;;10.50;9.60;;;;;;;;;;5040471;28;20036;-65
2022/09/13 12:06:11;;;;;;;12.38;11.57;;;;;;;;;;5038402;28;20056;-65
2022/09/13 12:08:42;;;;;;;10.75;9.95;;;;;;;;;;5045338;28;20366;-64
2022/09/13 12:11:10;;;;;;;;;;;;;;;;;;5040385;28;20037;-64
2022/09/13 12:13:49;;;;;;;11.55;10.85;;;;;;;;;;5040413;28;19935;-65
2022/09/13 12:16:24;;;;;;;12.20;11.40;;;;;;;;;;5037375;28;20115;-65
2022/09/13 12:18:54;;;;;;;13.38;12.57;;;;;;;;;;5040813;28;20022;-65
2022/09/13 12:21:23;;;;;;;10.50;9.80;;;;;;;;;;5040217;28;20025;-64
2022/09/13 12:24:05;;;;;;;13.55;12.65;;;;;;;;;;5041912;28;20047;-64
2022/09/13 12:26:45;;;;;;;17.98;16.90;;;;;;;;;;5037091;28;20037;-65
2022/09/13 12:29:19;;;;;;;20.40;19.20;;;;;;;;;;5045476;28;20059;-65
2022/09/13 12:31:45;;;;;;;17.30;16.30;;;;;;;;;;5037988;28;20172;-65
2022/09/13 12:34:22;;;;;;;17.95;16.85;;;;;;;;;;5070698;28;20045;-65
2022/09/13 12:37:06;;;;;;;22.30;21.00;;;;;;;;;;5036119;28;20458;-65
2022/09/13 12:39:59;;;;;;;17.70;16.60;;;;;;;;;;5039258;28;20033;-65
2022/09/13 12:42:37;;;;;;;15.10;13.82;;;;;;;;;;5041340;28;20064;-66
2022/09/13 12:45:18;;;;;;;15.07;14.18;;;;;;;;;;5035197;28;20040;-66
2022/09/13 12:48:00;;;;;;;17.80;16.70;;;;;;;;;;5039402;28;20036;-65
2022/09/13 12:50:45;;;;;;;17.45;16.35;;;;;;;;;;5038573;28;20036;-65
2022/09/13 12:53:18;;;;;;;20.70;19.50;;;;;;;;;;5041624;28;20022;-66
2022/09/13 12:55:55;;;;;;;16.27;15.27;;;;;;;;;;5037945;28;20451;-65
2022/09/13 12:58:45;;;;;;;18.60;17.40;;;;;;;;;;5038809;28;20033;-64
2022/09/13 13:01:15;;;;;;;17.23;16.20;;;;;;;;;;5040093;28;20029;-65
2022/09/13 13:03:55;;;;;;;18.77;17.75;;;;;;;;;;5036014;28;20509;-65
2022/09/13 13:06:39;;;;;;;19.15;17.98;;;;;;;;;;5036870;28;20053;-65
2022/09/13 13:09:34;;;;;;;14.80;13.80;;;;;;;;;;5036139;28;20359;-65
2022/09/13 13:12:00;;;;;;;17.85;16.75;;;;;;;;;;5036929;28;20033;-65
2022/09/13 13:14:37;;;;;;;14.60;13.75;;;;;;;;;;5039246;28;20033;-65
2022/09/13 13:17:35;;;;;;;16.80;15.60;;;;;;;;;;5036471;28;20045;-65
2022/09/13 13:20:39;;;;;;;17.17;16.08;;;;;;;;;;5037365;28;20095;-64
2022/09/13 13:23:34;;;;;;;17.52;16.23;;;;;;;;;;5037100;28;20048;-65
2022/09/13 13:26:46;;;;;;;16.80;15.80;;;;;;;;;;5038289;28;20598;-65
2022/09/13 13:29:18;;;;;;;18.95;17.65;;;;;;;;;;5036529;28;20048;-66
2022/09/13 13:32:10;;;;;;;18.27;17.08;;;;;;;;;;5038256;28;20059;-64
2022/09/13 13:34:48;;;;;;;19.42;18.13;;;;;;;;;;5033621;28;20053;-64
2022/09/13 13:37:13;;;;;;;19.60;18.38;;;;;;;;;;5066681;28;20048;-64
2022/09/13 13:39:41;;;;;;;18.48;17.45;;;;;;;;;;5040360;28;20026;-65
2022/09/13 13:42:25;;;;;;;19.35;18.25;;;;;;;;;;5036927;28;20112;-65
2022/09/13 13:44:51;;;;;;;19.65;18.58;;;;;;;;;;5035590;28;20025;-65
2022/09/13 13:47:16;;;;;;;20.98;19.70;;;;;;;;;;5037326;28;20021;-64
2022/09/13 13:49:48;;;;;;;20.17;19.08;;;;;;;;;;5032770;28;20366;-65
2022/09/13 13:52:20;;;;;;;17.80;16.73;;;;;;;;;;5036202;28;20502;-65
2022/09/13 13:55:05;;;;;;;18.85;17.60;;;;;;;;;;5032649;28;20044;-66
2022/09/13 13:57:37;;;;;;;19.83;18.67;;;;;;;;;;5036990;28;20354;-65
2022/09/13 14:00:19;;;;;;;21.67;20.27;;;;;;;;;;5040472;28;20048;-65
2022/09/13 14:02:53;;;;;;;20.25;19.10;;;;;;;;;;5035939;28;20115;-65
2022/09/13 14:05:49;;;;;;;23.63;22.33;;;;;;;;;;5035410;28;20474;-65
2022/09/13 14:08:33;;;;;;;20.00;18.63;;;;;;;;;;5036326;28;20566;-65
2022/09/13 14:11:19;;;;;;;19.58;18.42;;;;;;;;;;5034808;28;20045;-66
2022/09/13 14:13:59;;;;;;;20.45;19.25;;;;;;;;;;5036688;28;20083;-65
2022/09/13 14:17:02;;;;;;;20.20;19.00;;;;;;;;;;5034817;28;20025;-66
2022/09/13 14:19:41;;;;;;;17.95;16.85;;;;;;;;;;5034657;28;20090;-65
2022/09/13 14:22:27;;;;;;;20.90;19.70;;;;;;;;;;5034770;28;20044;-66
2022/09/13 14:25:11;;;;;;;18.42;17.33;;;;;;;;;;5052599;28;20388;-64
2022/09/13 14:27:39;;;;;;;19.73;18.63;;;;;;;;;;5036539;28;20056;-65
2022/09/13 14:30:21;;;;;;;20.33;19.13;;;;;;;;;;5039265;28;20080;-65
2022/09/13 14:32:50;;;;;;;18.95;17.90;;;;;;;;;;5034427;28;20033;-66
2022/09/13 14:35:39;;;;;;;19.67;18.58;;;;;;;;;;5036069;28;20033;-66
2022/09/13 14:38:29;;;;;;;20.90;19.30;;;;;;;;;;5025540;28;20064;-68
2022/09/13 14:41:02;;;;;;;21.05;19.77;;;;;;;;;;5034223;28;20029;-66
2022/09/13 14:43:29;;;;;;;20.30;19.13;;;;;;;;;;5038808;28;20448;-65
2022/09/13 14:46:09;;;;;;;21.50;19.88;;;;;;;;;;5038064;28;20794;-65
2022/09/13 14:48:41;;;;;;;19.95;18.77;;;;;;;;;;5037853;28;20037;-64
2022/09/13 14:51:31;;;;;;;20.40;19.30;;;;;;;;;;5034809;28;20040;-65
2022/09/13 14:54:21;;;;;;;22.20;20.90;;;;;;;;;;5067757;28;20029;-65
2022/09/13 14:56:52;;;;;;;19.23;18.13;;;;;;;;;;5034299;28;20025;-64
2022/09/13 14:59:30;;;;;;;;;;;;;;;;;;5037139;28;20170;-65
2022/09/13 15:01:56;;;;;;;16.98;15.90;;;;;;;;;;5035537;28;19963;-65
2022/09/13 15:04:23;;;;;;;16.05;15.05;;;;;;;;;;5035826;28;20040;-65
2022/09/13 15:07:05;;;;;;;16.02;14.77;;;;;;;;;;5035265;28;20063;-65